Poughkeepsie, NY (12601)

4:37 PM EDT on August 26, 2016 (GMT -0400)
Arlington | | Change Station

Elev 220 ft 41.71 °N, 73.90 °W | Updated 2 minutes ago

Clear
Clear
88.2 °F
Feels Like 92 °F
N
1.0
Wind Variable Wind from South
Gusts 2.0 mph

Today
High -- | Low -- °F
--% Chance of Precip.
Yesterday
High -- | Low -- °F
Precip. -- in
Pressure 29.97 in
Visibility 10.0 miles
Clouds Clear
Heat Index 92 °F
Dew Point 68 °F
Humidity 52%
Rainfall 0.00 in
Snow Depth Not available.
6:15 AM 7:37 PM
Waning Crescent, 31% visible
METAR KPOU 261953Z AUTO 35008KT 10SM CLR 32/17 A2998 RMK AO2 SLP148 T03170172
Pressure 29.97 in
Visibility 10.0 miles
Clouds Clear
Heat Index 92 °F
Dew Point 68 °F
Humidity 52%
Rainfall 0.00 in
Snow Depth Not available.
6:15 AM 7:37 PM
Waning Crescent, 31% visible
METAR KPOU 261953Z AUTO 35008KT 10SM CLR 32/17 A2998 RMK AO2 SLP148 T03170172

10-Day Weather Forecast

Almanac

Astronomy

Aug. 26, 2016 Rise Set
Actual Time
Civil Twilight
Nautical Twilight
Astronomical Twilight
Moon
Length of Visible Light
Length of Day
Tomorrow will be .
, % of the Moon is Illuminated

Today's Extremes

State Highs State Lows

Community

WunderPhotos

Upload Photos

1,935,203 photos uploaded!

WunderBlog® & News

Nearby

Air Quality

  Air Quality AQ Index Pollutant
Not available.

Snow Depth

Station Depth Elevation

Earthquake Activity

City Distance Mag. Time & Date
Minimum magnitude displayed is 2.5.

Coastal Water Temperatures

Place Temperature

Stations

Nearby Weather Stations

Station Location Temp. Windchill Dew Point Humidity Wind Precip. Elev Updated Type
                   

Watches & Warnings

There are currently no watches in effect.